Time;durP1;ratioP1;P1;durP2;ratioP2;P2;SDS_P1;SDS_P2;PMS_P1;PMS_P2;Temp;Humidity;BMP_temperature;BMP_pressure;BME280_temperature;BME280_humidity;BME280_pressure;Samples;Min_cycle;Max_cycle;Signal;HPM_P1;HPM_P2
2022/10/29 00:00:39;;;;;;;17.47;8.60;;;;;;;13.33;100.00;100261.09;4214091;28;20376;-72
2022/10/29 00:03:05;;;;;;;18.33;9.80;;;;;;;13.24;100.00;100262.06;4202941;28;20264;-71
2022/10/29 00:05:32;;;;;;;17.47;9.23;;;;;;;13.35;100.00;100264.44;4212042;28;20233;-74
2022/10/29 00:07:59;;;;;;;18.30;9.07;;;;;;;13.38;100.00;100258.75;4202753;28;20300;-68
2022/10/29 00:10:26;;;;;;;21.20;9.83;;;;;;;13.26;100.00;100252.03;4199893;28;21480;-75
2022/10/29 00:12:52;;;;;;;21.67;9.87;;;;;;;13.18;100.00;100252.03;4199553;28;23341;-71
2022/10/29 00:15:19;;;;;;;20.00;9.73;;;;;;;13.21;100.00;100254.38;4202525;28;21755;-71
2022/10/29 00:17:45;;;;;;;21.13;9.40;;;;;;;13.14;100.00;100245.34;4214015;28;21659;-77
2022/10/29 00:20:12;;;;;;;19.67;8.70;;;;;;;13.21;100.00;100241.84;4210398;28;20411;-73
2022/10/29 00:22:38;;;;;;;20.43;10.13;;;;;;;13.11;100.00;100235.84;4216695;28;20270;-74
2022/10/29 00:25:05;;;;;;;23.40;9.03;;;;;;;13.09;100.00;100238.66;4201533;28;20229;-75
2022/10/29 00:27:31;;;;;;;19.33;9.77;;;;;;;12.96;100.00;100227.63;4206182;28;20419;-74
2022/10/29 00:29:58;;;;;;;20.77;8.80;;;;;;;13.05;100.00;100237.31;4218928;28;20228;-72
2022/10/29 00:32:25;;;;;;;22.10;9.63;;;;;;;13.10;100.00;100237.66;4198834;28;20234;-73
2022/10/29 00:34:52;;;;;;;16.60;8.70;;;;;;;13.07;100.00;100238.00;4202536;28;20353;-71
2022/10/29 00:37:18;;;;;;;19.33;8.37;;;;;;;13.05;99.82;100236.50;4203499;28;20306;-73
2022/10/29 00:39:45;;;;;;;16.30;8.50;;;;;;;12.98;99.54;100236.31;4209053;28;20573;-74
2022/10/29 00:42:14;;;;;;;18.93;8.80;;;;;;;13.01;99.27;100235.97;4218229;28;21000;-72
2022/10/29 00:44:40;;;;;;;18.63;8.20;;;;;;;13.11;98.95;100238.53;4209150;28;20320;-72
2022/10/29 00:47:18;;;;;;;16.70;8.73;;;;;;;13.05;98.93;100229.31;4203206;28;22053;-72
2022/10/29 00:49:50;;;;;;;15.07;8.43;;;;;;;13.00;99.05;100234.31;4213739;28;20243;-73
2022/10/29 00:52:18;;;;;;;20.83;8.40;;;;;;;12.88;99.83;100232.97;4203723;28;20347;-72
2022/10/29 00:54:46;;;;;;;18.43;9.47;;;;;;;13.07;99.24;100229.97;4206141;28;20236;-72
2022/10/29 00:57:20;;;;;;;19.33;8.43;;;;;;;13.01;98.67;100232.47;4206748;28;21307;-73
2022/10/29 00:59:48;;;;;;;22.97;8.57;;;;;;;12.86;99.52;100216.28;4207984;28;20287;-75
2022/10/29 01:02:20;;;;;;;16.77;8.70;;;;;;;12.90;99.34;100212.28;4207189;28;20486;-73
2022/10/29 01:04:47;;;;;;;20.90;8.73;;;;;;;12.78;99.32;100214.44;4204022;28;20403;-74
2022/10/29 01:07:14;;;;;;;19.03;8.70;;;;;;;12.84;98.53;100216.44;4190856;28;20233;-75
2022/10/29 01:09:41;;;;;;;14.33;8.10;;;;;;;12.91;98.92;100202.44;4206270;28;20237;-71
2022/10/29 01:12:32;;;;;;;19.03;8.67;;;;;;;12.91;98.11;100203.25;4205638;28;21740;-72
2022/10/29 01:15:05;;;;;;;21.07;8.20;;;;;;;12.79;97.97;100205.41;4202184;28;20324;-71
2022/10/29 01:17:36;;;;;;;17.00;7.70;;;;;;;12.70;98.25;100216.25;4204526;28;20406;-72
2022/10/29 01:20:08;;;;;;;14.47;7.70;;;;;;;12.67;98.20;100220.94;4210032;28;20229;-71
2022/10/29 01:22:42;;;;;;;15.20;7.93;;;;;;;12.67;97.34;100223.59;4208066;28;20895;-72
2022/10/29 01:25:27;;;;;;;19.37;8.07;;;;;;;12.58;98.19;100224.56;4209407;28;20230;-71
2022/10/29 01:28:12;;;;;;;16.47;8.17;;;;;;;12.61;97.84;100224.22;4210791;28;20232;-72
2022/10/29 01:30:57;;;;;;;25.10;8.60;;;;;;;12.58;98.13;100227.25;4208870;28;20237;-74
2022/10/29 01:33:35;;;;;;;20.20;8.23;;;;;;;12.51;97.70;100223.56;4197711;28;22128;-77
2022/10/29 01:36:43;;;;;;;22.97;8.23;;;;;;;12.51;97.78;100222.72;4213400;28;20288;-72
2022/10/29 01:39:34;;;;;;;17.87;8.03;;;;;;;12.49;97.92;100227.38;4212042;28;21692;-77
2022/10/29 01:42:22;;;;;;;15.57;7.53;;;;;;;12.49;97.58;100228.22;4223259;28;20236;-69
2022/10/29 01:45:22;;;;;;;21.20;8.17;;;;;;;12.44;97.42;100211.88;4201759;28;20246;-72
2022/10/29 01:47:55;;;;;;;17.83;7.43;;;;;;;12.43;97.34;100210.16;4215444;28;22920;-70
2022/10/29 01:50:22;;;;;;;15.87;8.07;;;;;;;12.41;97.62;100206.84;4216543;28;20306;-73
2022/10/29 01:52:50;;;;;;;18.83;8.53;;;;;;;12.37;97.74;100213.50;4192174;28;21031;-74
2022/10/29 01:55:22;;;;;;;14.97;7.63;;;;;;;12.35;98.21;100212.84;4216072;28;20268;-75
2022/10/29 01:57:48;;;;;;;16.43;8.10;;;;;;;12.34;97.78;100216.47;4204249;28;20228;-75
2022/10/29 02:00:17;;;;;;;17.97;8.50;;;;;;;12.21;98.25;100209.78;4210662;28;20298;-71
2022/10/29 02:03:04;;;;;;;18.97;8.73;;;;;;;12.25;97.92;100208.47;4213215;28;20666;-74
2022/10/29 02:05:34;;;;;;;15.57;8.30;;;;;;;12.17;99.03;100203.09;4205931;28;20280;-70
2022/10/29 02:08:03;;;;;;;21.07;9.80;;;;;;;12.16;98.12;100198.75;4180135;28;20236;-71
2022/10/29 02:10:38;;;;;;;17.37;8.57;;;;;;;12.16;98.78;100197.94;4201022;28;20225;-73
2022/10/29 02:13:05;;;;;;;19.13;8.37;;;;;;;12.11;99.51;100190.41;4202982;28;20605;-73
2022/10/29 02:15:41;;;;;;;21.67;8.67;;;;;;;12.15;98.78;100198.91;4197136;28;20320;-77
2022/10/29 02:18:08;;;;;;;18.80;8.77;;;;;;;12.04;99.32;100194.72;4204503;28;20428;-71
2022/10/29 02:20:40;;;;;;;20.07;8.87;;;;;;;12.09;98.88;100187.06;4200791;28;20236;-73
2022/10/29 02:23:06;;;;;;;18.40;8.83;;;;;;;12.03;99.61;100187.69;4204199;28;20236;-71
2022/10/29 02:25:33;;;;;;;14.03;7.80;;;;;;;11.96;99.21;100184.84;4221039;28;20237;-71
2022/10/29 02:28:00;;;;;;;20.00;8.37;;;;;;;11.90;99.65;100177.50;4215762;28;25302;-72
2022/10/29 02:30:26;;;;;;;18.67;8.40;;;;;;;11.92;99.63;100167.50;4227020;28;20238;-72
2022/10/29 02:32:53;;;;;;;19.47;8.30;;;;;;;11.93;99.58;100171.00;4206007;28;20564;-72
2022/10/29 02:35:20;;;;;;;20.13;8.30;;;;;;;11.91;99.52;100165.81;4215037;28;20703;-71
2022/10/29 02:37:47;;;;;;;16.63;8.53;;;;;;;11.97;98.44;100161.69;4233443;28;20301;-72
2022/10/29 02:40:14;;;;;;;19.23;8.13;;;;;;;11.94;99.04;100162.00;4202850;28;21739;-74
2022/10/29 02:42:40;;;;;;;19.00;7.83;;;;;;;11.97;98.31;100157.19;4213953;28;23487;-71
2022/10/29 02:45:07;;;;;;;17.30;7.73;;;;;;;11.97;98.76;100157.19;4222385;28;20243;-74
2022/10/29 02:47:33;;;;;;;15.27;8.27;;;;;;;11.94;98.45;100151.31;4215817;28;20236;-73
2022/10/29 02:50:00;;;;;;;19.87;8.23;;;;;;;11.96;98.36;100152.00;4201769;28;21366;-71
2022/10/29 02:52:26;;;;;;;17.73;7.80;;;;;;;11.92;99.08;100148.84;4202984;28;20328;-71
2022/10/29 02:54:53;;;;;;;19.90;8.07;;;;;;;11.95;99.04;100153.00;4209030;28;20240;-74
2022/10/29 02:57:19;;;;;;;16.90;7.67;;;;;;;11.95;98.70;100145.84;4200283;28;20509;-74
2022/10/29 02:59:46;;;;;;;22.93;8.63;;;;;;;11.90;98.61;100147.31;4222407;28;20232;-70
2022/10/29 03:02:12;;;;;;;20.67;7.67;;;;;;;11.97;98.37;100143.84;4211989;28;21529;-76
2022/10/29 03:04:40;;;;;;;15.20;7.83;;;;;;;11.95;97.88;100145.00;4208204;28;20263;-73
2022/10/29 03:07:06;;;;;;;23.57;8.57;;;;;;;11.94;98.64;100140.66;4205904;28;20372;-72
2022/10/29 03:09:33;;;;;;;21.23;7.80;;;;;;;11.92;98.87;100142.69;4192621;28;20346;-73
2022/10/29 03:11:59;;;;;;;19.10;7.83;;;;;;;11.89;98.35;100137.63;4206514;28;20241;-74
2022/10/29 03:14:26;;;;;;;15.83;7.37;;;;;;;11.90;98.06;100139.31;4206000;28;20299;-72
2022/10/29 03:16:53;;;;;;;17.67;7.80;;;;;;;11.97;98.11;100132.34;4207551;28;21589;-74
2022/10/29 03:19:19;;;;;;;16.50;7.33;;;;;;;11.90;98.66;100129.50;4205124;28;20386;-75
2022/10/29 03:21:45;;;;;;;16.90;7.90;;;;;;;11.95;97.72;100123.69;4203629;28;20238;-71
2022/10/29 03:24:12;;;;;;;17.53;7.90;;;;;;;11.96;97.46;100120.84;4198279;28;20352;-71
2022/10/29 03:26:38;;;;;;;13.83;7.27;;;;;;;11.98;98.23;100121.50;4208553;28;20231;-71
2022/10/29 03:29:05;;;;;;;18.63;8.10;;;;;;;12.01;97.96;100123.00;4186964;28;20270;-76
2022/10/29 03:31:31;;;;;;;20.00;7.67;;;;;;;11.98;97.75;100126.00;4208274;28;21103;-73
2022/10/29 03:33:58;;;;;;;16.67;7.77;;;;;;;12.09;97.04;100122.22;4203514;28;20275;-73
2022/10/29 03:36:25;;;;;;;15.47;7.00;;;;;;;12.02;97.26;100122.03;4194284;28;20291;-76
2022/10/29 03:38:51;;;;;;;14.87;7.03;;;;;;;12.04;98.05;100115.53;4203722;28;20244;-72
2022/10/29 03:41:18;;;;;;;23.27;7.90;;;;;;;12.06;97.75;100115.38;4199183;28;20390;-70
2022/10/29 03:43:44;;;;;;;19.20;7.93;;;;;;;12.10;98.05;100119.38;4216655;28;21327;-70
2022/10/29 03:46:11;;;;;;;19.33;7.93;;;;;;;12.08;98.19;100115.19;4209073;28;20274;-71
2022/10/29 03:48:37;;;;;;;14.53;7.37;;;;;;;12.10;98.40;100114.03;4205855;28;21199;-74
2022/10/29 03:51:05;;;;;;;16.33;7.80;;;;;;;12.04;97.60;100122.72;4206885;28;21051;-75
2022/10/29 03:53:33;;;;;;;18.10;7.60;;;;;;;12.05;98.55;100121.69;4213466;28;22080;-73
2022/10/29 03:56:00;;;;;;;20.60;7.73;;;;;;;12.03;98.29;100129.03;4209038;28;20526;-72
2022/10/29 03:58:26;;;;;;;21.17;7.60;;;;;;;12.02;97.57;100138.03;4207912;28;20299;-70
2022/10/29 04:01:01;;;;;;;18.47;7.43;;;;;;;11.95;98.60;100134.34;4199961;28;25872;-72
2022/10/29 04:03:28;;;;;;;15.43;7.27;;;;;;;11.92;98.54;100132.84;4201548;28;20400;-74
2022/10/29 04:05:56;;;;;;;16.67;7.33;;;;;;;11.90;98.85;100136.66;4212117;28;20299;-71
2022/10/29 04:08:23;;;;;;;15.13;7.43;;;;;;;11.78;99.49;100131.59;4205532;28;20335;-69
2022/10/29 04:10:50;;;;;;;17.67;7.57;;;;;;;11.79;99.91;100133.25;4219968;28;20235;-71
2022/10/29 04:13:17;;;;;;;19.53;8.07;;;;;;;11.89;99.64;100129.63;4225381;28;20232;-70
2022/10/29 04:15:44;;;;;;;17.10;7.33;;;;;;;11.87;99.26;100134.25;4206023;28;20244;-71
2022/10/29 04:18:11;;;;;;;20.37;7.57;;;;;;;11.86;99.94;100130.78;4209921;28;20235;-74
2022/10/29 04:20:39;;;;;;;19.30;6.90;;;;;;;11.84;99.37;100120.25;4194438;28;20238;-70
2022/10/29 04:23:25;;;;;;;18.00;6.90;;;;;;;11.90;99.32;100118.00;4207444;28;20241;-73
2022/10/29 04:26:12;;;;;;;12.87;6.93;;;;;;;11.85;99.91;100113.13;4197162;28;20516;-71
2022/10/29 04:28:59;;;;;;;14.70;7.30;;;;;;;11.89;100.00;100114.47;4208992;28;20393;-73
2022/10/29 04:31:25;;;;;;;18.43;7.20;;;;;;;11.90;99.51;100105.50;4205110;28;21764;-77
2022/10/29 04:33:52;;;;;;;16.13;7.47;;;;;;;11.90;99.23;100110.81;4212471;28;20298;-71
2022/10/29 04:36:19;;;;;;;13.23;6.47;;;;;;;11.97;99.17;100109.19;4214568;28;20303;-70
2022/10/29 04:38:45;;;;;;;16.17;7.00;;;;;;;11.98;99.02;100102.00;4206372;28;23663;-70
2022/10/29 04:41:12;;;;;;;21.20;8.20;;;;;;;11.95;98.84;100107.69;4209528;28;20238;-70
2022/10/29 04:43:38;;;;;;;17.47;7.67;;;;;;;12.07;98.56;100102.88;4219103;28;21667;-76
2022/10/29 04:46:05;;;;;;;17.07;7.10;;;;;;;12.15;97.86;100103.75;4203338;28;20244;-73
2022/10/29 04:48:31;;;;;;;17.17;6.90;;;;;;;12.16;98.34;100117.91;4208677;28;20363;-73
2022/10/29 04:50:58;;;;;;;13.70;6.70;;;;;;;12.15;97.91;100121.56;4216624;28;20327;-71
2022/10/29 04:53:25;;;;;;;14.60;6.33;;;;;;;12.12;97.97;100112.03;4212171;28;20239;-76
2022/10/29 04:55:58;;;;;;;16.53;7.37;;;;;;;12.15;97.66;100103.75;4208126;28;20290;-73
2022/10/29 04:58:25;;;;;;;13.80;7.00;;;;;;;12.15;97.69;100103.75;4205180;28;20306;-78
2022/10/29 05:00:52;;;;;;;16.80;6.53;;;;;;;12.18;97.37;100107.91;4206750;28;20230;-73
2022/10/29 05:03:18;;;;;;;17.37;6.97;;;;;;;12.14;97.98;100110.06;4205331;28;20236;-68
2022/10/29 05:05:44;;;;;;;16.80;6.63;;;;;;;12.23;97.07;100101.06;4209721;28;21304;-76
2022/10/29 05:08:11;;;;;;;14.47;6.93;;;;;;;12.18;97.71;100110.56;4214748;28;20631;-74
2022/10/29 05:10:38;;;;;;;15.03;7.30;;;;;;;12.25;97.42;100119.59;4215060;28;27178;-73
2022/10/29 05:13:08;;;;;;;20.97;7.03;;;;;;;12.18;97.73;100124.75;4208631;28;20420;-75
2022/10/29 05:15:36;;;;;;;17.13;6.97;;;;;;;12.23;97.82;100124.25;4215965;28;22317;-73
2022/10/29 05:18:03;;;;;;;18.70;7.07;;;;;;;12.19;97.35;100141.56;4214143;28;22151;-72
2022/10/29 05:20:29;;;;;;;11.40;5.83;;;;;;;12.17;98.29;100138.22;4197206;28;20353;-73
2022/10/29 05:23:04;;;;;;;19.10;7.57;;;;;;;12.20;97.47;100130.75;4202367;28;20415;-70
2022/10/29 05:25:32;;;;;;;18.47;7.03;;;;;;;12.22;98.01;100144.78;4205151;28;23681;-70
2022/10/29 05:28:02;;;;;;;12.67;6.30;;;;;;;12.30;98.11;100151.13;4210580;28;20227;-73
2022/10/29 05:30:29;;;;;;;18.07;6.17;;;;;;;12.29;97.71;100160.97;4224769;28;20634;-70
2022/10/29 05:32:55;;;;;;;20.27;6.63;;;;;;;12.35;98.10;100154.13;4218704;28;21721;-75
2022/10/29 05:35:23;;;;;;;14.90;7.27;;;;;;;12.29;97.96;100150.28;4219747;28;20237;-72
2022/10/29 05:37:54;;;;;;;17.17;7.13;;;;;;;12.29;98.03;100150.28;4209997;28;20340;-73
2022/10/29 05:40:22;;;;;;;18.80;6.63;;;;;;;12.29;97.52;100144.97;4218457;28;20246;-70
2022/10/29 05:42:49;;;;;;;14.67;7.53;;;;;;;12.31;98.12;100142.94;4197663;28;20310;-70
2022/10/29 05:45:15;;;;;;;19.73;6.77;;;;;;;12.38;97.55;100137.78;4218043;28;20824;-74
2022/10/29 05:47:42;;;;;;;16.93;7.00;;;;;;;12.41;97.47;100145.47;4221761;28;21022;-72
2022/10/29 05:50:09;;;;;;;11.43;5.90;;;;;;;12.41;97.49;100142.81;4246531;28;20229;-72
2022/10/29 05:52:36;;;;;;;17.10;6.77;;;;;;;12.40;97.52;100141.13;4227732;28;20602;-73
2022/10/29 05:55:03;;;;;;;19.40;6.63;;;;;;;12.45;97.28;100145.00;4229002;28;20302;-71
2022/10/29 05:57:30;;;;;;;17.57;6.70;;;;;;;12.39;97.48;100137.63;4234561;28;22158;-74
2022/10/29 05:59:56;;;;;;;13.37;5.90;;;;;;;12.38;97.49;100127.94;4248312;28;20310;-72
2022/10/29 06:02:23;;;;;;;20.30;6.50;;;;;;;12.38;97.53;100133.28;4210460;28;21822;-72
2022/10/29 06:04:51;;;;;;;13.27;6.83;;;;;;;12.40;97.55;100125.13;4217895;28;20275;-71
2022/10/29 06:07:18;;;;;;;14.63;6.57;;;;;;;12.42;97.74;100123.13;4222476;28;20279;-73
2022/10/29 06:09:44;;;;;;;14.33;6.80;;;;;;;12.42;97.91;100129.28;4228184;28;20736;-73
2022/10/29 06:12:11;;;;;;;17.00;6.93;;;;;;;12.38;97.86;100129.78;4201502;28;20598;-60
2022/10/29 06:14:37;;;;;;;16.73;6.57;;;;;;;12.44;97.68;100129.13;4219529;28;20232;-70
2022/10/29 06:17:04;;;;;;;14.37;6.80;;;;;;;12.42;97.42;100123.13;4213177;28;20297;-71
2022/10/29 06:19:30;;;;;;;16.90;6.90;;;;;;;12.47;97.42;100120.78;4196653;28;22538;-72
2022/10/29 06:21:57;;;;;;;17.80;6.30;;;;;;;12.46;97.59;100119.13;4218307;28;20332;-72
2022/10/29 06:24:26;;;;;;;15.57;6.33;;;;;;;12.52;97.60;100113.13;4224129;28;20295;-70
2022/10/29 06:26:53;;;;;;;10.80;6.13;;;;;;;12.50;97.92;100117.78;4204083;28;20239;-67
2022/10/29 06:29:20;;;;;;;15.47;6.90;;;;;;;12.61;97.74;100133.47;4202541;28;20251;-73
2022/10/29 06:31:46;;;;;;;13.03;6.63;;;;;;;12.61;97.08;100136.16;4221738;28;21040;-71
2022/10/29 06:34:13;;;;;;;16.37;6.77;;;;;;;12.67;96.84;100135.50;4226423;28;20232;-72
2022/10/29 06:36:40;;;;;;;20.07;7.10;;;;;;;12.71;96.50;100135.97;4222297;28;20384;-70
2022/10/29 06:39:06;;;;;;;18.17;7.17;;;;;;;12.83;96.37;100141.81;4227416;28;20836;-75
2022/10/29 06:41:33;;;;;;;16.00;6.40;;;;;;;12.91;95.76;100133.00;4222428;28;23535;-70
2022/10/29 06:43:59;;;;;;;15.50;6.80;;;;;;;12.96;95.53;100147.50;4240700;28;23145;-69
2022/10/29 06:46:26;;;;;;;17.33;7.10;;;;;;;12.99;95.18;100152.50;4209195;28;20802;-71
2022/10/29 06:48:53;;;;;;;18.20;6.73;;;;;;;13.00;95.61;100161.38;4219980;28;20276;-74
2022/10/29 06:51:19;;;;;;;20.27;7.50;;;;;;;12.94;95.06;100165.53;4215774;28;21264;-71
2022/10/29 06:53:46;;;;;;;15.53;6.23;;;;;;;12.93;95.10;100161.19;4225043;28;20236;-73
2022/10/29 06:56:12;;;;;;;20.00;6.47;;;;;;;13.04;94.72;100166.22;4228988;28;20243;-77
2022/10/29 06:58:39;;;;;;;14.83;6.00;;;;;;;13.07;94.94;100171.22;4246791;28;20306;-74
2022/10/29 07:01:05;;;;;;;15.77;5.97;;;;;;;13.13;94.22;100167.03;4216180;28;20446;-80
2022/10/29 07:03:32;;;;;;;19.50;6.50;;;;;;;13.16;94.11;100173.88;4224646;28;20237;-76
2022/10/29 07:05:59;;;;;;;16.90;6.50;;;;;;;13.19;94.13;100173.56;4231012;28;20243;-72
2022/10/29 07:08:26;;;;;;;13.07;6.50;;;;;;;13.22;94.14;100165.19;4220939;28;20247;-73
2022/10/29 07:10:54;;;;;;;18.50;6.50;;;;;;;13.30;93.37;100159.88;4225471;28;20228;-73
2022/10/29 07:13:20;;;;;;;12.60;6.13;;;;;;;13.31;93.51;100172.22;4217052;28;20323;-70
2022/10/29 07:15:47;;;;;;;15.47;6.40;;;;;;;13.41;93.37;100169.38;4217317;28;20245;-73
2022/10/29 07:18:14;;;;;;;15.63;5.87;;;;;;;13.49;93.13;100159.50;4218864;28;20273;-73
2022/10/29 07:20:43;;;;;;;21.03;5.77;;;;;;;13.58;92.48;100164.81;4234409;28;20236;-74
2022/10/29 07:23:11;;;;;;;17.43;6.37;;;;;;;13.59;92.25;100163.81;4216682;28;20241;-77
2022/10/29 07:25:39;;;;;;;18.83;6.77;;;;;;;13.58;92.41;100154.97;4259907;28;20247;-75
2022/10/29 07:28:10;;;;;;;23.03;6.13;;;;;;;13.68;92.42;100160.13;4208515;28;20230;-72
2022/10/29 07:30:37;;;;;;;15.13;6.27;;;;;;;13.80;91.82;100155.22;4236163;28;21142;-71
2022/10/29 07:33:04;;;;;;;14.13;6.03;;;;;;;13.88;91.17;100158.72;4264745;28;20229;-77
2022/10/29 07:35:32;;;;;;;17.03;6.30;;;;;;;13.97;90.84;100156.00;4229311;28;20251;-67
2022/10/29 07:38:00;;;;;;;17.00;5.63;;;;;;;13.88;90.70;100152.50;4245236;28;20537;-72
2022/10/29 07:40:36;;;;;;;14.50;6.30;;;;;;;14.05;90.76;100164.00;4236378;28;20239;-75
2022/10/29 07:43:03;;;;;;;16.97;5.90;;;;;;;14.19;89.50;100171.28;4257908;28;20282;-79
2022/10/29 07:45:30;;;;;;;17.47;6.43;;;;;;;14.33;89.09;100165.19;4244102;28;20304;-73
2022/10/29 07:47:58;;;;;;;19.47;6.93;;;;;;;14.51;88.44;100166.75;4238055;28;20244;-76
2022/10/29 07:50:29;;;;;;;16.97;6.30;;;;;;;14.71;87.64;100170.66;4270754;28;20270;-73
2022/10/29 07:52:59;;;;;;;16.20;5.90;;;;;;;14.97;86.34;100166.78;4276667;28;20224;-73
2022/10/29 07:55:26;;;;;;;14.90;6.40;;;;;;;15.71;83.47;100169.63;4259310;28;22169;-72
2022/10/29 07:58:00;;;;;;;13.87;5.93;;;;;;;17.18;75.77;100171.22;4245892;28;20243;-73
2022/10/29 08:00:28;;;;;;;14.40;6.10;;;;;;;17.42;73.06;100178.03;4221749;28;25836;-75
2022/10/29 08:02:55;;;;;;;14.93;6.60;;;;;;;17.95;70.65;100186.47;4250057;28;20297;-75
2022/10/29 08:05:23;;;;;;;16.30;7.10;;;;;;;17.86;70.43;100171.50;4254592;28;23130;-77
2022/10/29 08:07:54;;;;;;;18.97;6.40;;;;;;;18.27;69.53;100173.38;4230507;28;22592;-73
2022/10/29 08:10:26;;;;;;;15.03;6.00;;;;;;;18.19;68.53;100170.81;4246370;28;20283;-73
2022/10/29 08:12:54;;;;;;;14.97;6.00;;;;;;;18.53;67.79;100165.34;4240128;28;20245;-73
2022/10/29 08:15:22;;;;;;;16.80;6.00;;;;;;;19.17;65.69;100173.94;4266852;28;23656;-76
2022/10/29 08:17:52;;;;;;;14.00;5.90;;;;;;;19.13;64.82;100156.53;4250382;28;20277;-78
2022/10/29 08:20:19;;;;;;;15.27;6.37;;;;;;;18.53;67.24;100159.97;4234656;28;21056;-76
2022/10/29 08:22:46;;;;;;;14.83;6.10;;;;;;;18.96;65.89;100178.53;4255004;28;20244;-79
2022/10/29 08:25:13;;;;;;;18.63;6.07;;;;;;;18.75;67.09;100184.91;4237041;28;25337;-69
2022/10/29 08:27:40;;;;;;;17.60;6.57;;;;;;;18.51;68.13;100194.34;4217894;28;20288;-67
2022/10/29 08:30:09;;;;;;;17.20;6.00;;;;;;;17.94;70.71;100195.59;4240958;28;22142;-76
2022/10/29 08:32:36;;;;;;;16.63;7.00;;;;;;;17.17;74.82;100185.72;4234874;28;21294;-74
2022/10/29 08:35:04;;;;;;;16.57;6.00;;;;;;;16.94;76.73;100173.31;4217416;28;20246;-74
2022/10/29 08:37:30;;;;;;;18.03;6.83;;;;;;;17.29;75.46;100187.66;4261118;28;23291;-74
2022/10/29 08:39:57;;;;;;;15.53;6.47;;;;;;;17.81;73.29;100190.94;4256147;28;20239;-74
2022/10/29 08:42:30;;;;;;;16.90;6.17;;;;;;;18.03;72.61;100186.31;4242291;28;21631;-81
2022/10/29 08:45:43;;;;;;;17.10;6.47;;;;;;;18.57;69.81;100198.13;4267717;28;20247;-76
2022/10/29 08:48:34;;;;;;;15.17;6.23;;;;;;;18.61;70.19;100190.44;4213108;28;21119;-76
2022/10/29 08:51:09;;;;;;;19.53;6.53;;;;;;;19.13;67.80;100199.69;4213836;28;20229;-70
2022/10/29 08:53:39;;;;;;;17.40;6.70;;;;;;;19.10;69.40;100183.91;4224105;28;20358;-49
2022/10/29 08:56:11;;;;;;;13.40;5.90;;;;;;;19.45;67.80;100181.81;4216416;28;20310;-73
2022/10/29 08:58:54;;;;;;;16.00;6.67;;;;;;;18.54;70.72;100177.81;4239307;28;20302;-67
2022/10/29 09:01:21;;;;;;;18.43;6.70;;;;;;;17.76;74.70;100176.41;4241487;28;20323;-73
2022/10/29 09:03:49;;;;;;;19.57;7.07;;;;;;;17.08;78.74;100171.56;4216080;28;23418;-74
2022/10/29 09:06:52;;;;;;;19.63;7.80;;;;;;;16.66;82.43;100186.66;4208013;28;20311;-77
2022/10/29 09:09:38;;;;;;;17.87;7.67;;;;;;;16.52;83.67;100195.59;4240531;28;20231;-77
2022/10/29 09:12:22;;;;;;;19.77;7.67;;;;;;;16.10;85.99;100181.06;4219425;28;20251;-72
2022/10/29 09:15:16;;;;;;;17.23;8.20;;;;;;;15.95;87.99;100181.06;4225051;28;20233;-78
2022/10/29 09:17:52;;;;;;;22.40;9.47;;;;;;;15.73;89.88;100177.47;4224941;28;21110;-73
2022/10/29 09:20:37;;;;;;;32.93;8.37;;;;;;;15.75;89.77;100181.63;4264504;28;20354;-72
2022/10/29 09:23:39;;;;;;;22.13;8.60;;;;;;;15.71;90.58;100184.84;4239089;28;20415;-76
2022/10/29 09:26:16;;;;;;;23.33;8.47;;;;;;;15.80;90.31;100173.88;4210389;28;20917;-67
2022/10/29 09:28:52;;;;;;;26.57;8.10;;;;;;;15.74;90.73;100168.41;4243312;28;20266;-73
2022/10/29 09:31:36;;;;;;;20.40;8.93;;;;;;;15.70;91.28;100177.81;4213561;28;20569;-75
2022/10/29 09:34:11;;;;;;;24.53;8.77;;;;;;;15.65;91.99;100170.31;4207286;28;20229;-77
2022/10/29 09:36:38;;;;;;;24.23;8.93;;;;;;;15.55;92.37;100173.28;4224894;28;20238;-77
2022/10/29 09:39:13;;;;;;;19.93;8.97;;;;;;;15.56;93.24;100174.09;4229271;28;20232;-74
2022/10/29 09:41:40;;;;;;;24.03;9.10;;;;;;;15.55;93.38;100167.91;4235499;28;20340;-73
2022/10/29 09:44:18;;;;;;;26.30;9.53;;;;;;;15.46;93.60;100154.78;4213974;28;22296;-74
2022/10/29 09:47:15;;;;;;;18.43;9.23;;;;;;;15.52;93.45;100170.97;4227709;28;20885;-76
2022/10/29 09:50:02;;;;;;;24.83;9.70;;;;;;;15.44;94.48;100175.56;4222224;28;20312;-76
2022/10/29 09:52:41;;;;;;;30.30;10.40;;;;;;;15.37;95.38;100197.75;4231779;28;20240;-76
2022/10/29 09:55:34;;;;;;;29.07;10.63;;;;;;;15.27;95.82;100201.72;4217391;28;20298;-77
2022/10/29 09:58:01;;;;;;;24.50;11.03;;;;;;;15.20;96.82;100205.09;4228733;28;20232;-78
2022/10/29 10:00:29;;;;;;;27.10;10.17;;;;;;;15.26;97.46;100205.38;4213940;28;20595;-75
2022/10/29 10:03:00;;;;;;;26.13;10.90;;;;;;;15.16;97.69;100216.38;4209054;28;21774;-77
2022/10/29 10:05:30;;;;;;;22.67;10.30;;;;;;;15.23;97.77;100213.81;4205676;28;20590;-77
2022/10/29 10:08:11;;;;;;;28.50;11.07;;;;;;;15.16;98.24;100206.47;4215511;28;20334;-77
2022/10/29 10:11:00;;;;;;;26.70;11.40;;;;;;;15.28;97.77;100216.78;4211024;28;22621;-81
2022/10/29 10:13:32;;;;;;;24.63;10.30;;;;;;;15.24;97.97;100207.41;4222058;28;20237;-75
2022/10/29 10:16:00;;;;;;;24.33;11.97;;;;;;;15.26;98.29;100200.03;4209251;28;20276;-79
2022/10/29 10:18:39;;;;;;;26.47;11.77;;;;;;;15.29;98.02;100188.94;4197049;28;20565;-74
2022/10/29 10:21:10;;;;;;;31.33;12.23;;;;;;;15.33;98.23;100190.25;4222059;28;22676;-79
2022/10/29 10:23:53;;;;;;;31.77;12.53;;;;;;;15.45;97.42;100196.00;4192329;28;21124;-72
2022/10/29 10:26:35;;;;;;;27.23;11.87;;;;;;;15.39;97.92;100198.41;4217064;28;20274;-75
2022/10/29 10:29:17;;;;;;;27.23;12.40;;;;;;;15.56;97.51;100196.38;4208335;28;20783;-78
2022/10/29 10:31:45;;;;;;;28.40;13.57;;;;;;;15.67;97.42;100213.06;4222395;28;20277;-78
2022/10/29 10:34:17;;;;;;;35.00;13.00;;;;;;;15.66;97.11;100200.63;4200769;28;20376;-73
2022/10/29 10:36:54;;;;;;;31.07;13.63;;;;;;;15.56;97.79;100201.75;4212861;28;20522;-77
2022/10/29 10:39:25;;;;;;;37.13;14.17;;;;;;;15.44;98.63;100219.31;4204917;28;20233;-76
2022/10/29 10:41:52;;;;;;;35.67;13.70;;;;;;;15.30;99.85;100220.09;4193867;28;20238;-75
2022/10/29 10:44:19;;;;;;;37.43;14.53;;;;;;;15.26;100.00;100226.84;4214577;28;20237;-79
2022/10/29 10:46:48;;;;;;;34.10;14.43;;;;;;;15.25;100.00;100230.53;4215848;28;20233;-76
2022/10/29 10:49:21;;;;;;;33.63;13.80;;;;;;;15.31;100.00;100230.66;4205482;28;20235;-77
2022/10/29 10:51:50;;;;;;;31.30;14.17;;;;;;;15.28;100.00;100214.91;4213010;28;20249;-75
2022/10/29 10:54:43;;;;;;;33.47;13.53;;;;;;;15.60;99.62;100216.47;4244280;28;21526;-84
2022/10/29 10:57:10;;;;;;;36.10;14.43;;;;;;;15.82;98.51;100219.28;4242719;28;21160;-79
2022/10/29 10:59:48;;;;;;;32.77;13.40;;;;;;;16.12;96.53;100219.28;4268244;28;20235;-79
2022/10/29 11:02:47;;;;;;;33.53;13.07;;;;;;;16.51;95.30;100220.81;4236516;28;20458;-82
2022/10/29 11:05:20;;;;;;;37.70;13.17;;;;;;;16.64;92.96;100219.06;4236014;28;20236;-82
2022/10/29 11:08:05;;;;;;;30.97;12.50;;;;;;;16.50;94.08;100211.06;4219194;28;20389;-83
2022/10/29 11:10:53;;;;;;;35.53;13.37;;;;;;;16.11;95.89;100220.28;4234491;28;20301;-78
2022/10/29 11:13:22;;;;;;;31.70;12.77;;;;;;;16.06;96.24;100201.22;4217559;28;20758;-76
2022/10/29 11:16:15;;;;;;;29.40;12.37;;;;;;;15.92;98.02;100205.59;4208312;28;26427;-79
2022/10/29 11:18:51;;;;;;;29.50;12.30;;;;;;;15.83;98.40;100212.91;4189090;28;26002;-71
2022/10/29 11:21:25;;;;;;;36.00;12.60;;;;;;;15.91;98.40;100212.81;4228360;28;20354;-73
2022/10/29 11:24:05;;;;;;;33.90;13.13;;;;;;;15.95;98.02;100207.91;4211699;28;20229;-76
2022/10/29 11:26:40;;;;;;;27.00;12.40;;;;;;;15.87;98.53;100208.81;4215972;28;20307;-78
2022/10/29 11:29:28;;;;;;;30.17;13.80;;;;;;;15.77;98.90;100208.28;4227021;28;20605;-75
2022/10/29 11:31:59;;;;;;;29.20;13.57;;;;;;;15.72;99.47;100199.94;4220194;28;21190;-78